createdAt,value
2019-03-29T00:03:16.322Z,43.3
2019-03-29T00:08:21.765Z,43.3
2019-03-29T00:13:27.186Z,43.6
2019-03-29T00:18:32.557Z,43.7
2019-03-29T00:23:37.909Z,44
2019-03-29T00:28:43.180Z,44.3
2019-03-29T00:33:48.348Z,44.7
2019-03-29T00:38:53.452Z,45.2
2019-03-29T00:43:58.681Z,45.6
2019-03-29T00:49:03.913Z,45.9
2019-03-29T00:54:09.342Z,46
2019-03-29T00:59:15.786Z,46.5
2019-03-29T01:04:21.289Z,46.9
2019-03-29T01:09:26.595Z,47.3
2019-03-29T01:14:30.372Z,47.7
2019-03-29T01:19:35.497Z,47.8
2019-03-29T01:24:43.224Z,48.7
2019-03-29T01:29:48.272Z,48.7
2019-03-29T01:34:53.602Z,49.3
2019-03-29T01:39:59.576Z,50.7
2019-03-29T01:45:04.815Z,50.7
2019-03-29T01:50:11.070Z,51.1
2019-03-29T01:55:16.360Z,51.1
2019-03-29T02:00:21.457Z,51.8
2019-03-29T02:05:27.678Z,52.3
2019-03-29T02:10:33.291Z,53
2019-03-29T02:15:39.591Z,53.6
2019-03-29T02:20:44.757Z,53.6
2019-03-29T02:25:50.275Z,54
2019-03-29T02:30:55.519Z,54.5
2019-03-29T02:36:00.697Z,54.7
2019-03-29T02:41:06.260Z,54.7
2019-03-29T02:46:11.616Z,54.7
2019-03-29T02:51:17.098Z,55.1
2019-03-29T02:56:20.848Z,56
2019-03-29T03:01:25.986Z,56.3
2019-03-29T03:06:31.201Z,56.5
2019-03-29T03:11:36.551Z,57.2
2019-03-29T03:16:41.778Z,57.7
2019-03-29T03:21:46.945Z,57.8
2019-03-29T03:26:52.482Z,59.3
2019-03-29T03:31:57.569Z,59.8
2019-03-29T03:37:03.327Z,60.4
2019-03-29T03:42:08.301Z,62.1
2019-03-29T03:47:13.500Z,61.8
2019-03-29T03:52:18.810Z,61.2
2019-03-29T03:57:24.141Z,60.7
2019-03-29T04:02:29.237Z,60.1
2019-03-29T04:07:34.899Z,61.5
2019-03-29T04:12:40.429Z,64
2019-03-29T04:17:45.895Z,66.1
2019-03-29T04:22:51.144Z,68
2019-03-29T04:27:55.142Z,69.4
2019-03-29T04:32:59.153Z,70.3
2019-03-29T04:38:04.584Z,70.7
2019-03-29T04:43:09.840Z,70.7
2019-03-29T04:48:15.040Z,70.8
2019-03-29T04:53:20.088Z,70.9
2019-03-29T04:58:25.756Z,70.4
2019-03-29T05:03:30.811Z,70
2019-03-29T05:08:35.901Z,68.9
2019-03-29T05:13:41.089Z,68
2019-03-29T05:18:50.816Z,65.9
2019-03-29T05:23:56.141Z,65.9
2019-03-29T05:29:01.479Z,64.4
2019-03-29T05:34:06.837Z,63
2019-03-29T05:39:12.061Z,61.6
2019-03-29T05:44:18.271Z,60.4
2019-03-29T05:49:23.319Z,59.2
2019-03-29T05:54:28.499Z,58.2
2019-03-29T05:59:33.792Z,57.4
2019-03-29T06:04:39.321Z,56.6
2019-03-29T06:09:45.568Z,55.6
2019-03-29T06:14:50.680Z,54.9
2019-03-29T06:19:55.882Z,54.2
2019-03-29T06:25:01.380Z,54
2019-03-29T06:30:05.203Z,53.3
2019-03-29T06:35:10.403Z,52.9
2019-03-29T06:40:15.621Z,52.7
2019-03-29T06:45:22.205Z,50.9
2019-03-29T06:50:22.407Z,51.5
2019-03-29T06:55:25.943Z,51
2019-03-29T07:00:31.252Z,50.7
2019-03-29T07:05:36.603Z,49
2019-03-29T07:10:41.971Z,48.7
2019-03-29T07:15:47.160Z,48.1
2019-03-29T07:20:52.200Z,47.6
2019-03-29T07:25:59.000Z,44.8
2019-03-29T07:31:04.126Z,44.8
2019-03-29T07:36:09.076Z,42.9
2019-03-29T07:41:25.594Z,41
2019-03-29T07:46:14.627Z,38.4
2019-03-29T07:51:19.940Z,35
2019-03-29T07:56:24.982Z,32
2019-03-29T08:01:31.000Z,28.6
2019-03-29T08:06:37.295Z,25.7
2019-03-29T08:11:48.950Z,23.9
2019-03-29T08:16:44.312Z,23.9
2019-03-29T08:21:49.463Z,22.2
2019-03-29T08:26:54.553Z,20.9
2019-03-29T08:31:59.799Z,21.1
2019-03-29T08:37:04.936Z,22.8
2019-03-29T08:42:10.449Z,24.2
2019-03-29T08:47:14.311Z,25.2
2019-03-29T08:52:19.479Z,27.2
2019-03-29T08:57:24.566Z,27
2019-03-29T09:02:28.528Z,27
2019-03-29T09:07:47.265Z,26.2
2019-03-29T09:12:42.963Z,25.8
2019-03-29T09:17:47.889Z,25.9
2019-03-29T09:22:51.644Z,27
2019-03-29T09:27:56.768Z,26.5
2019-03-29T09:33:02.109Z,26.1
2019-03-29T09:38:07.307Z,27.3
2019-03-29T09:43:11.567Z,26.4
2019-03-29T09:48:16.954Z,26.4
2019-03-29T09:53:22.780Z,27.3
2019-03-29T09:58:31.076Z,26.5
2019-03-29T10:03:36.150Z,25.3
2019-03-29T10:08:41.326Z,25.4
2019-03-29T10:13:46.499Z,25.9
2019-03-29T10:18:51.730Z,25.4
2019-03-29T10:23:57.527Z,27
2019-03-29T10:29:02.783Z,27
2019-03-29T10:34:08.187Z,27.6
2019-03-29T10:39:13.545Z,25.4
2019-03-29T10:44:18.858Z,24.8
2019-03-29T10:54:26.027Z,24.7
2019-03-29T10:59:31.246Z,25
2019-03-29T11:04:36.387Z,23.7
2019-03-29T11:09:41.513Z,22.8
2019-03-29T11:14:46.584Z,23.2
2019-03-29T11:19:50.656Z,22.3
2019-03-29T11:24:54.231Z,23.8
2019-03-29T11:29:59.278Z,23.2
2019-03-29T11:35:04.559Z,22.1
2019-03-29T11:40:09.848Z,21.6
2019-03-29T11:45:15.715Z,20.7
2019-03-29T11:50:20.669Z,20.8
2019-03-29T11:55:25.969Z,20.1
2019-03-29T12:00:31.023Z,20.5
2019-03-29T12:05:38.843Z,23.3
2019-03-29T12:10:43.949Z,23.2
2019-03-29T12:15:49.046Z,22.6
2019-03-29T12:20:56.994Z,21.2
2019-03-29T12:26:02.328Z,21.2
2019-03-29T12:31:10.529Z,21.5
2019-03-29T12:36:15.579Z,21.5
2019-03-29T12:41:20.629Z,22
2019-03-29T12:46:26.023Z,22
2019-03-29T12:51:31.050Z,22.5
2019-03-29T12:56:36.435Z,24.2
2019-03-29T13:01:43.043Z,25.2
2019-03-29T13:06:50.376Z,25.3
2019-03-29T13:11:56.305Z,27.7
2019-03-29T13:22:08.750Z,27.7
2019-03-29T13:27:14.404Z,30
2019-03-29T13:32:18.108Z,30
2019-03-29T13:37:23.721Z,29.7
2019-03-29T13:42:29.119Z,30
2019-03-29T13:47:35.272Z,30
2019-03-29T13:52:40.283Z,30
2019-03-29T13:57:45.650Z,30.4
2019-03-29T14:02:50.875Z,31
2019-03-29T14:07:56.248Z,30.7
2019-03-29T14:13:01.457Z,30
2019-03-29T14:18:06.967Z,29.5
2019-03-29T14:23:11.989Z,30
2019-03-29T14:28:16.997Z,31.4
2019-03-29T14:33:21.971Z,30.2
2019-03-29T14:38:27.012Z,30.3
2019-03-29T14:43:32.710Z,31.2
2019-03-29T14:48:38.367Z,31.2
2019-03-29T14:53:43.297Z,31.6
2019-03-29T14:58:48.266Z,31.8
2019-03-29T15:03:53.536Z,32.4
2019-03-29T15:08:59.028Z,32.6
2019-03-29T15:14:04.171Z,32.3
2019-03-29T15:24:13.543Z,32.1
2019-03-29T15:29:20.061Z,32.4
2019-03-29T15:34:26.239Z,32.4
2019-03-29T15:39:31.674Z,31.7
2019-03-29T15:44:36.895Z,32
2019-03-29T15:49:56.689Z,32
2019-03-29T15:54:51.744Z,32.1
2019-03-29T15:59:57.431Z,32.8
2019-03-29T16:05:01.322Z,32.6
2019-03-29T16:10:07.194Z,33
2019-03-29T16:15:12.614Z,33.6
2019-03-29T16:20:18.192Z,33.8
2019-03-29T16:25:24.509Z,33.9
2019-03-29T16:30:30.215Z,34.3
2019-03-29T16:35:35.378Z,34.3
2019-03-29T16:40:41.565Z,35
2019-03-29T16:45:51.240Z,35.3
2019-03-29T16:50:57.653Z,35.3
2019-03-29T16:56:05.860Z,35.8
2019-03-29T17:01:11.352Z,35.8
2019-03-29T17:06:16.402Z,36.2
2019-03-29T17:11:21.594Z,36.7
2019-03-29T17:16:32.939Z,37.7
2019-03-29T17:21:28.608Z,37.7
2019-03-29T17:26:33.543Z,38.1
2019-03-29T17:31:38.880Z,38.5
2019-03-29T17:36:42.725Z,39.9
2019-03-29T17:41:47.965Z,39.9
2019-03-29T17:46:53.219Z,40.3
2019-03-29T17:51:58.548Z,40.7
2019-03-29T17:57:03.540Z,41
2019-03-29T18:02:12.360Z,41.8
2019-03-29T18:07:17.490Z,41.8
2019-03-29T18:12:22.714Z,41.9
2019-03-29T18:17:27.710Z,41.9
2019-03-29T18:22:33.308Z,42.3
2019-03-29T18:27:39.829Z,43.4
2019-03-29T18:32:49.618Z,44.1
2019-03-29T18:37:55.027Z,44.1
2019-03-29T18:42:59.445Z,44.8
2019-03-29T18:48:04.865Z,44.8
2019-03-29T18:53:10.785Z,45.9
2019-03-29T18:58:16.163Z,45.9
2019-03-29T19:03:16.603Z,46.1
2019-03-29T19:08:21.568Z,46.3
2019-03-29T19:13:29.645Z,46.2
2019-03-29T19:18:24.869Z,46.4
2019-03-29T19:23:30.343Z,46.1
2019-03-29T19:28:34.181Z,46.5
2019-03-29T19:33:40.592Z,46.7
2019-03-29T19:38:44.139Z,46.7
2019-03-29T19:43:49.951Z,47
2019-03-29T19:48:55.007Z,47.3
2019-03-29T19:54:10.085Z,48.5
2019-03-29T19:59:05.601Z,48.6
2019-03-29T20:04:12.458Z,49.1
2019-03-29T20:09:19.321Z,49.1
2019-03-29T20:14:24.895Z,49.2
2019-03-29T20:19:29.027Z,49.3
2019-03-29T20:24:40.152Z,49.1
2019-03-29T20:29:48.048Z,49
2019-03-29T20:34:57.972Z,49
2019-03-29T20:40:03.239Z,49
2019-03-29T20:45:09.170Z,49.1
2019-03-29T20:50:14.501Z,49.4
2019-03-29T20:55:18.869Z,49.6
2019-03-29T21:00:24.132Z,49.7
2019-03-29T21:05:30.164Z,49.9
2019-03-29T21:10:35.783Z,49.9
2019-03-29T21:15:41.049Z,50.2
2019-03-29T21:20:46.430Z,50.2
2019-03-29T21:25:51.964Z,50.5
2019-03-29T21:30:55.744Z,50.7
2019-03-29T21:36:00.978Z,50.9
2019-03-29T21:41:06.517Z,50.7
2019-03-29T21:46:12.012Z,51
2019-03-29T21:51:17.103Z,51.1
2019-03-29T21:56:21.039Z,51.5
2019-03-29T22:01:26.109Z,51.5
2019-03-29T22:06:31.509Z,51.5
2019-03-29T22:11:36.854Z,51.6
2019-03-29T22:16:42.286Z,52
2019-03-29T22:21:48.161Z,52
2019-03-29T22:26:53.396Z,52.7
2019-03-29T22:31:58.590Z,52.6
2019-03-29T22:37:04.464Z,52.6
2019-03-29T22:42:09.646Z,52.6
2019-03-29T22:47:15.156Z,52.5
2019-03-29T22:52:22.206Z,52.6
2019-03-29T22:57:27.364Z,52.6
2019-03-29T23:02:32.883Z,52.9
2019-03-29T23:07:38.107Z,53.4
2019-03-29T23:12:43.126Z,54.3
2019-03-29T23:17:48.978Z,55.2
2019-03-29T23:22:54.101Z,54.6
2019-03-29T23:27:59.717Z,54.9
2019-03-29T23:33:05.100Z,55
2019-03-29T23:38:10.392Z,55
2019-03-29T23:43:15.311Z,55.4
2019-03-29T23:48:20.834Z,55.7
2019-03-29T23:53:26.577Z,55.8
2019-03-29T23:58:32.183Z,55.8
